createdAt,value
2022-10-21T00:00:50.012Z,114.27
2022-10-21T00:03:17.909Z,115.47
2022-10-21T00:05:45.585Z,111.77
2022-10-21T00:08:15.028Z,112.97
2022-10-21T00:10:42.716Z,115.27
2022-10-21T00:13:10.365Z,116.27
2022-10-21T00:15:38.204Z,113.07
2022-10-21T00:18:05.830Z,113.70
2022-10-21T00:20:37.371Z,117.43
2022-10-21T00:23:07.284Z,112.63
2022-10-21T00:25:36.301Z,104.83
2022-10-21T00:28:03.924Z,118.40
2022-10-21T00:30:31.557Z,114.83
2022-10-21T00:33:02.213Z,115.73
2022-10-21T00:35:34.365Z,109.87
2022-10-21T00:38:01.992Z,117.67
2022-10-21T00:40:29.765Z,113.40
2022-10-21T00:42:58.775Z,122.00
2022-10-21T00:45:27.021Z,117.80
2022-10-21T00:47:57.430Z,114.53
2022-10-21T00:50:28.452Z,115.43
2022-10-21T00:52:57.266Z,116.27
2022-10-21T00:55:26.928Z,113.70
2022-10-21T00:57:55.099Z,114.33
2022-10-21T01:00:24.070Z,115.70
2022-10-21T01:02:51.736Z,106.63
2022-10-21T01:05:19.781Z,108.80
2022-10-21T01:07:48.264Z,117.67
2022-10-21T01:10:16.285Z,117.40
2022-10-21T01:12:54.958Z,114.63
2022-10-21T01:15:26.845Z,117.20
2022-10-21T01:18:00.174Z,115.07
2022-10-21T01:20:50.718Z,115.07
2022-10-21T01:23:44.447Z,105.93
2022-10-21T01:26:33.685Z,115.67
2022-10-21T01:29:22.334Z,114.83
2022-10-21T01:31:57.045Z,112.60
2022-10-21T01:34:27.442Z,96.30
2022-10-21T01:36:58.157Z,117.23
2022-10-21T01:39:29.347Z,117.93
2022-10-21T01:42:02.134Z,144.33
2022-10-21T01:44:32.977Z,107.93
2022-10-21T01:47:03.997Z,93.93
2022-10-21T01:49:34.381Z,114.57
2022-10-21T01:52:02.792Z,113.47
2022-10-21T01:54:34.876Z,116.07
2022-10-21T01:57:03.178Z,109.27
2022-10-21T01:59:32.505Z,118.13
2022-10-21T02:02:03.224Z,118.20
2022-10-21T02:04:32.317Z,112.43
2022-10-21T02:07:00.029Z,117.40
2022-10-21T02:09:27.824Z,120.90
2022-10-21T02:11:59.529Z,116.53
2022-10-21T02:14:31.478Z,119.67
2022-10-21T02:17:00.264Z,116.40
2022-10-21T02:19:32.777Z,114.17
2022-10-21T02:22:02.019Z,111.57
2022-10-21T02:24:33.404Z,120.20
2022-10-21T02:27:01.272Z,119.17
2022-10-21T02:29:31.182Z,116.87
2022-10-21T02:32:07.447Z,117.27
2022-10-21T02:34:45.791Z,119.73
2022-10-21T02:37:19.453Z,120.87
2022-10-21T02:39:50.784Z,118.37
2022-10-21T02:42:22.324Z,120.87
2022-10-21T02:44:50.028Z,120.73
2022-10-21T02:47:17.860Z,120.30
2022-10-21T02:49:46.921Z,122.33
2022-10-21T02:52:14.754Z,120.13
2022-10-21T02:54:42.361Z,121.33
2022-10-21T02:57:10.008Z,120.20
2022-10-21T02:59:37.661Z,121.37
2022-10-21T03:02:05.715Z,117.23
2022-10-21T03:04:33.358Z,119.03
2022-10-21T03:07:02.328Z,111.90
2022-10-21T03:09:30.005Z,121.47
2022-10-21T03:11:57.652Z,121.57
2022-10-21T03:14:25.284Z,118.80
2022-10-21T03:16:52.893Z,119.80
2022-10-21T03:19:20.721Z,113.63
2022-10-21T03:21:48.366Z,113.20
2022-10-21T03:24:27.914Z,114.97
2022-10-21T03:26:56.376Z,114.93
2022-10-21T03:29:24.028Z,118.47
2022-10-21T03:31:51.650Z,119.83
2022-10-21T03:34:19.256Z,96.53
2022-10-21T03:36:46.957Z,120.27
2022-10-21T03:39:14.646Z,115.97
2022-10-21T03:41:43.603Z,121.43
2022-10-21T03:44:11.374Z,114.53
2022-10-21T03:46:39.009Z,102.10
2022-10-21T03:49:10.142Z,116.87
2022-10-21T03:51:39.810Z,116.13
2022-10-21T03:54:07.412Z,118.77
2022-10-21T03:56:35.027Z,114.13
2022-10-21T03:59:04.042Z,116.77
2022-10-21T04:01:31.728Z,116.90
2022-10-21T04:03:59.421Z,115.47
2022-10-21T04:06:27.206Z,105.40
2022-10-21T04:08:54.887Z,116.70
2022-10-21T04:11:22.600Z,112.83
2022-10-21T04:13:50.265Z,119.57
2022-10-21T04:16:20.808Z,115.57
2022-10-21T04:18:48.917Z,120.00
2022-10-21T04:21:16.641Z,110.77
2022-10-21T04:23:44.350Z,115.37
2022-10-21T04:26:12.261Z,111.10
2022-10-21T04:28:39.955Z,118.93
2022-10-21T04:31:07.607Z,108.60
2022-10-21T04:33:36.730Z,117.37
2022-10-21T04:36:04.540Z,112.67
2022-10-21T04:38:32.706Z,116.90
2022-10-21T04:41:02.061Z,112.60
2022-10-21T04:43:29.933Z,112.43
2022-10-21T04:45:57.598Z,110.63
2022-10-21T04:48:25.272Z,114.47
2022-10-21T04:50:54.541Z,115.77
2022-10-21T04:53:23.078Z,118.47
2022-10-21T04:55:52.285Z,114.33
2022-10-21T04:58:21.899Z,109.07
2022-10-21T05:00:50.040Z,115.40
2022-10-21T05:03:18.088Z,112.73
2022-10-21T05:05:45.853Z,117.27
2022-10-21T05:08:14.838Z,107.57
2022-10-21T05:10:42.636Z,104.23
2022-10-21T05:13:10.293Z,106.87
2022-10-21T05:15:37.969Z,117.20
2022-10-21T05:18:05.650Z,117.73
2022-10-21T05:20:33.290Z,102.73
2022-10-21T05:23:00.918Z,105.23
2022-10-21T05:25:31.846Z,110.03
2022-10-21T05:28:01.913Z,116.30
2022-10-21T05:30:29.744Z,106.77
2022-10-21T05:32:57.402Z,107.70
2022-10-21T05:35:25.005Z,115.60
2022-10-21T05:37:52.640Z,116.47
2022-10-21T05:40:20.289Z,106.03
2022-10-21T05:42:49.272Z,110.73
2022-10-21T05:45:17.095Z,112.73
2022-10-21T05:47:47.989Z,100.67
2022-10-21T05:50:16.001Z,121.47
2022-10-21T05:52:43.647Z,121.10
2022-10-21T05:55:11.939Z,107.07
2022-10-21T05:57:40.257Z,118.67
2022-10-21T06:00:11.034Z,112.57
2022-10-21T06:02:39.013Z,119.57
2022-10-21T06:05:07.305Z,117.67
2022-10-21T06:07:35.090Z,116.40
2022-10-21T06:10:03.024Z,118.70
2022-10-21T06:12:30.738Z,112.03
2022-10-21T06:14:58.377Z,116.20
2022-10-21T06:17:27.383Z,119.43
2022-10-21T06:19:55.031Z,117.97
2022-10-21T06:22:23.046Z,119.93
2022-10-21T06:24:50.746Z,116.23
2022-10-21T06:27:18.361Z,119.07
2022-10-21T06:29:46.016Z,104.87
2022-10-21T06:32:13.743Z,117.93
2022-10-21T06:34:42.941Z,117.60
2022-10-21T06:37:10.565Z,111.67
2022-10-21T06:39:38.215Z,116.43
2022-10-21T06:42:05.892Z,106.13
2022-10-21T06:44:33.525Z,109.67
2022-10-21T06:47:01.197Z,110.77
2022-10-21T06:49:28.833Z,114.77
2022-10-21T06:51:58.261Z,113.07
2022-10-21T06:54:27.249Z,129.17
2022-10-21T06:56:54.906Z,84.37
2022-10-21T07:01:59.825Z,114.65
2022-10-21T07:04:29.022Z,65.20
2022-10-21T07:06:58.335Z,80.47
2022-10-21T07:09:26.099Z,86.10
2022-10-21T07:11:53.798Z,83.03
2022-10-21T07:14:21.425Z,72.93
2022-10-21T07:16:49.267Z,87.53
2022-10-21T07:19:16.883Z,92.18
2022-10-21T07:21:44.593Z,96.57
2022-10-21T07:24:16.444Z,90.80
2022-10-21T07:26:46.905Z,91.65
2022-10-21T07:29:14.878Z,93.90
2022-10-21T07:31:42.535Z,96.03
2022-10-21T07:34:12.411Z,95.43
2022-10-21T07:36:41.609Z,99.70
2022-10-21T07:39:11.797Z,91.50
2022-10-21T07:41:42.585Z,92.30
2022-10-21T07:44:10.358Z,95.70
2022-10-21T07:46:39.953Z,97.73
2022-10-21T07:49:10.582Z,93.17
2022-10-21T07:51:38.573Z,94.38
2022-10-21T07:54:06.784Z,87.87
2022-10-21T07:56:36.100Z,102.63
2022-10-21T07:59:10.201Z,81.63
2022-10-21T08:01:44.041Z,100.47
2022-10-21T08:04:12.408Z,85.60
2022-10-21T08:06:40.081Z,99.00
2022-10-21T08:09:07.815Z,94.83
2022-10-21T08:11:35.752Z,98.83
2022-10-21T08:14:06.639Z,89.23
2022-10-21T08:16:34.414Z,102.83
2022-10-21T08:19:04.031Z,103.17
2022-10-21T08:21:31.970Z,93.07
2022-10-21T08:23:59.867Z,104.27
2022-10-21T08:26:27.532Z,101.20
2022-10-21T08:28:55.241Z,99.27
2022-10-21T08:31:24.392Z,104.80
2022-10-21T08:33:52.146Z,107.40
2022-10-21T08:36:21.649Z,106.53
2022-10-21T08:38:49.838Z,109.60
2022-10-21T08:41:36.643Z,104.50
2022-10-21T08:44:07.504Z,108.50
2022-10-21T08:46:39.043Z,106.93
2022-10-21T08:49:10.599Z,99.63
2022-10-21T08:51:41.652Z,114.60
2022-10-21T08:54:27.143Z,112.63
2022-10-21T08:56:59.070Z,118.33
2022-10-21T08:59:27.315Z,114.93
2022-10-21T09:02:02.090Z,118.13
2022-10-21T09:04:40.475Z,110.73
2022-10-21T09:07:11.454Z,114.40
2022-10-21T09:09:43.568Z,116.27
2022-10-21T09:12:15.505Z,109.73
2022-10-21T09:15:08.789Z,117.17
2022-10-21T09:18:02.536Z,117.53
2022-10-21T09:20:46.274Z,121.40
2022-10-21T09:26:02.562Z,112.53
2022-10-21T09:28:31.262Z,118.43
2022-10-21T09:31:02.223Z,110.67
2022-10-21T09:33:34.526Z,118.73
2022-10-21T09:36:04.831Z,114.03
2022-10-21T09:38:41.110Z,116.93
2022-10-21T09:41:12.694Z,119.97
2022-10-21T09:43:40.367Z,117.63
2022-10-21T09:46:08.027Z,121.53
2022-10-21T09:49:08.133Z,124.70
2022-10-21T09:51:32.233Z,126.80
2022-10-21T09:54:03.905Z,123.87
2022-10-21T09:56:35.636Z,121.27
2022-10-21T09:59:07.988Z,127.07
2022-10-21T10:01:37.454Z,120.53
2022-10-21T10:04:13.385Z,120.53
2022-10-21T10:06:42.645Z,129.93
2022-10-21T10:09:26.857Z,123.97
2022-10-21T10:11:57.428Z,123.03
2022-10-21T10:14:31.104Z,146.00
2022-10-21T10:16:59.834Z,148.43
2022-10-21T10:19:29.695Z,154.03
2022-10-21T10:22:12.967Z,148.37
2022-10-21T10:24:41.325Z,142.67
2022-10-21T10:27:14.723Z,147.57
2022-10-21T10:29:43.065Z,148.17
2022-10-21T10:32:15.070Z,146.83
2022-10-21T10:34:52.275Z,151.83
2022-10-21T10:37:21.586Z,143.33
2022-10-21T10:39:51.542Z,143.60
2022-10-21T10:42:19.996Z,149.17
2022-10-21T10:44:47.893Z,146.73
2022-10-21T10:47:21.046Z,143.73
2022-10-21T10:49:51.530Z,149.73
2022-10-21T10:52:24.060Z,151.63
2022-10-21T10:55:17.311Z,150.33
2022-10-21T10:57:59.124Z,153.83
2022-10-21T11:00:42.182Z,148.73
2022-10-21T11:03:13.524Z,149.53
2022-10-21T11:05:45.685Z,151.10
2022-10-21T11:08:15.770Z,153.40
2022-10-21T11:10:45.843Z,152.73
2022-10-21T11:13:15.969Z,153.17
2022-10-21T11:16:15.913Z,153.47
2022-10-21T11:18:49.785Z,159.17
2022-10-21T11:21:32.080Z,159.13
2022-10-21T11:24:11.918Z,152.03
2022-10-21T11:26:45.372Z,155.03
2022-10-21T11:29:25.540Z,152.83
2022-10-21T11:32:11.273Z,149.63
2022-10-21T11:34:50.101Z,152.40
2022-10-21T11:37:26.840Z,150.43
2022-10-21T11:39:58.407Z,151.47
2022-10-21T11:42:32.766Z,153.47
2022-10-21T11:45:11.569Z,143.57
2022-10-21T11:47:44.872Z,155.63
2022-10-21T11:53:12.325Z,149.80
2022-10-21T11:55:43.355Z,149.00
2022-10-21T11:58:24.346Z,151.67
2022-10-21T12:00:58.977Z,153.47
2022-10-21T12:03:37.834Z,151.50
2022-10-21T12:06:13.031Z,147.30
2022-10-21T12:08:48.288Z,156.20
2022-10-21T12:11:21.471Z,150.87
2022-10-21T12:13:51.545Z,150.43
2022-10-21T12:16:20.319Z,147.53
2022-10-21T12:18:52.684Z,160.33
2022-10-21T12:21:26.121Z,153.83
2022-10-21T12:23:59.134Z,151.27
2022-10-21T12:26:30.066Z,150.23
2022-10-21T12:29:02.259Z,146.57
2022-10-21T12:31:36.113Z,145.53
2022-10-21T12:34:04.112Z,138.57
2022-10-21T12:36:40.693Z,150.63
2022-10-21T12:39:17.054Z,148.53
2022-10-21T12:41:45.844Z,150.67
2022-10-21T12:46:28.080Z,142.73
2022-10-21T12:48:56.137Z,145.27
2022-10-21T12:51:25.844Z,142.93
2022-10-21T12:53:58.111Z,149.07
2022-10-21T12:56:31.434Z,143.93
2022-10-21T12:59:02.928Z,148.17
2022-10-21T13:01:42.267Z,151.17
2022-10-21T13:04:48.466Z,146.07
2022-10-21T13:07:32.862Z,148.20
2022-10-21T13:10:28.949Z,149.07
2022-10-21T13:13:39.169Z,146.03
2022-10-21T13:16:30.178Z,146.90
2022-10-21T13:19:03.377Z,147.17
2022-10-21T13:21:38.825Z,138.23
2022-10-21T13:24:16.043Z,145.50
2022-10-21T13:26:49.236Z,147.73
2022-10-21T13:29:24.141Z,152.80
2022-10-21T13:32:30.541Z,150.17
2022-10-21T13:35:04.902Z,147.27
2022-10-21T13:37:35.140Z,152.17
2022-10-21T13:40:06.500Z,147.83
2022-10-21T13:42:37.329Z,139.33
2022-10-21T13:45:09.236Z,146.13
2022-10-21T13:47:37.375Z,151.27
2022-10-21T13:50:13.543Z,159.60
2022-10-21T13:52:44.041Z,155.73
2022-10-21T13:55:19.235Z,151.57
2022-10-21T13:57:48.614Z,148.97
2022-10-21T14:00:21.293Z,150.00
2022-10-21T14:02:49.733Z,152.60
2022-10-21T14:05:34.925Z,145.97
2022-10-21T14:08:02.924Z,152.53
2022-10-21T14:10:31.359Z,152.17
2022-10-21T14:15:39.768Z,151.77
2022-10-21T14:18:07.533Z,161.93
2022-10-21T14:20:38.044Z,153.40
2022-10-21T14:23:08.273Z,152.40
2022-10-21T14:25:36.009Z,154.53
2022-10-21T14:28:05.081Z,154.73
2022-10-21T14:30:34.737Z,148.20
2022-10-21T14:33:06.188Z,147.83
2022-10-21T14:35:33.845Z,151.97
2022-10-21T14:38:04.285Z,140.30
2022-10-21T14:40:33.359Z,142.27
2022-10-21T14:43:02.569Z,147.03
2022-10-21T14:45:32.052Z,150.17
2022-10-21T14:48:09.206Z,155.73
2022-10-21T14:50:38.136Z,153.40
2022-10-21T14:53:15.913Z,150.90
2022-10-21T14:55:43.995Z,159.37
2022-10-21T14:58:18.472Z,148.83
2022-10-21T15:00:46.978Z,147.60
2022-10-21T15:03:14.660Z,152.37
2022-10-21T15:05:48.869Z,148.57
2022-10-21T15:08:29.271Z,144.23
2022-10-21T15:11:23.500Z,154.50
2022-10-21T15:14:07.211Z,156.03
2022-10-21T15:19:09.883Z,153.80
2022-10-21T15:21:39.964Z,153.80
2022-10-21T15:24:18.442Z,147.23
2022-10-21T15:26:47.702Z,148.83
2022-10-21T15:29:23.683Z,148.60
2022-10-21T15:31:52.423Z,155.80
2022-10-21T15:34:20.370Z,149.47
2022-10-21T15:36:47.982Z,149.27
2022-10-21T15:39:17.155Z,150.40
2022-10-21T15:41:44.922Z,155.93
2022-10-21T15:44:19.292Z,150.97
2022-10-21T15:46:47.613Z,145.10
2022-10-21T15:49:18.454Z,151.47
2022-10-21T15:51:46.806Z,156.07
2022-10-21T15:54:15.194Z,151.10
2022-10-21T15:56:45.129Z,145.67
2022-10-21T15:59:17.790Z,143.47
2022-10-21T16:01:45.670Z,149.83
2022-10-21T16:04:13.369Z,149.73
2022-10-21T16:06:45.798Z,150.23
2022-10-21T16:09:19.689Z,149.47
2022-10-21T16:12:00.173Z,152.60
2022-10-21T16:14:30.068Z,152.00
2022-10-21T16:16:59.152Z,145.17
2022-10-21T16:19:26.978Z,142.30
2022-10-21T16:21:54.629Z,146.93
2022-10-21T16:24:22.281Z,145.73
2022-10-21T16:26:51.433Z,149.43
2022-10-21T16:29:20.471Z,146.77
2022-10-21T16:31:48.344Z,148.07
2022-10-21T16:34:16.028Z,137.50
2022-10-21T16:36:43.743Z,139.60
2022-10-21T16:39:15.096Z,150.93
2022-10-21T16:41:42.767Z,174.17
2022-10-21T16:44:11.828Z,150.20
2022-10-21T16:46:40.918Z,155.30
2022-10-21T16:49:13.281Z,146.10
2022-10-21T16:51:42.334Z,147.97
2022-10-21T16:54:11.134Z,146.33
2022-10-21T16:56:38.805Z,144.47
2022-10-21T16:59:07.109Z,147.87
2022-10-21T17:01:36.195Z,144.93
2022-10-21T17:04:03.982Z,142.43
2022-10-21T17:06:31.965Z,146.03
2022-10-21T17:08:59.648Z,137.77
2022-10-21T17:11:32.930Z,142.10
2022-10-21T17:14:00.731Z,142.63
2022-10-21T17:16:28.853Z,142.20
2022-10-21T17:18:57.891Z,142.63
2022-10-21T17:21:27.221Z,142.80
2022-10-21T17:23:55.630Z,149.33
2022-10-21T17:26:23.339Z,145.33
2022-10-21T17:28:51.781Z,153.07
2022-10-21T17:31:21.680Z,143.27
2022-10-21T17:33:50.533Z,142.17
2022-10-21T17:36:20.319Z,145.23
2022-10-21T17:38:48.084Z,151.27
2022-10-21T17:41:19.481Z,138.70
2022-10-21T17:43:47.615Z,146.23
2022-10-21T17:46:18.701Z,143.70
2022-10-21T17:48:46.514Z,156.77
2022-10-21T17:51:14.151Z,129.03
2022-10-21T17:53:43.273Z,140.57
2022-10-21T17:56:12.557Z,140.93
2022-10-21T17:58:40.622Z,130.27
2022-10-21T18:01:08.944Z,145.00
2022-10-21T18:03:36.834Z,139.53
2022-10-21T18:06:06.361Z,125.13
2022-10-21T18:08:34.208Z,140.13
2022-10-21T18:11:03.738Z,139.63
2022-10-21T18:13:32.440Z,141.40
2022-10-21T18:16:07.519Z,138.73
2022-10-21T18:18:35.505Z,140.40
2022-10-21T18:21:03.443Z,139.33
2022-10-21T18:23:31.077Z,150.37
2022-10-21T18:26:04.833Z,138.37
2022-10-21T18:28:32.750Z,138.90
2022-10-21T18:31:00.701Z,141.07
2022-10-21T18:33:29.008Z,142.00
2022-10-21T18:35:56.642Z,145.17
2022-10-21T18:38:24.346Z,140.73
2022-10-21T18:41:01.902Z,145.93
2022-10-21T18:43:38.401Z,142.13
2022-10-21T18:46:06.369Z,140.97
2022-10-21T18:48:34.024Z,144.00
2022-10-21T18:51:06.267Z,141.07
2022-10-21T18:53:34.781Z,142.63
2022-10-21T18:56:04.859Z,142.33
2022-10-21T18:58:32.730Z,141.90
2022-10-21T19:01:01.868Z,139.17
2022-10-21T19:03:29.524Z,143.37
2022-10-21T19:05:57.292Z,143.40
2022-10-21T19:08:25.146Z,144.10
2022-10-21T19:10:52.790Z,143.37
2022-10-21T19:13:20.472Z,145.47
2022-10-21T19:15:48.118Z,137.77
2022-10-21T19:18:17.136Z,142.33
2022-10-21T19:20:44.775Z,144.33
2022-10-21T19:23:12.408Z,138.73
2022-10-21T19:25:40.031Z,132.70
2022-10-21T19:28:07.666Z,133.57
2022-10-21T19:30:35.306Z,138.97
2022-10-21T19:33:02.937Z,139.43
2022-10-21T19:35:32.001Z,143.10
2022-10-21T19:38:03.162Z,131.20
2022-10-21T19:40:35.561Z,141.00
2022-10-21T19:43:03.273Z,141.53
2022-10-21T19:45:30.924Z,139.43
2022-10-21T19:47:58.569Z,116.67
2022-10-21T19:50:26.194Z,133.87
2022-10-21T19:52:55.365Z,133.13
2022-10-21T19:55:23.738Z,142.13
2022-10-21T19:57:51.646Z,143.93
2022-10-21T20:00:19.421Z,134.50
2022-10-21T20:02:47.070Z,122.10
2022-10-21T20:05:14.700Z,133.63
2022-10-21T20:07:42.527Z,140.87
2022-10-21T20:10:11.947Z,139.27
2022-10-21T20:12:39.827Z,136.00
2022-10-21T20:15:08.465Z,111.13
2022-10-21T20:17:36.127Z,121.07
2022-10-21T20:20:03.937Z,137.33
2022-10-21T20:22:31.623Z,109.77
2022-10-21T20:24:59.281Z,140.43
2022-10-21T20:27:28.249Z,113.13
2022-10-21T20:29:55.898Z,114.53
2022-10-21T20:32:23.578Z,137.40
2022-10-21T20:34:51.206Z,135.33
2022-10-21T20:37:19.268Z,140.73
2022-10-21T20:39:46.873Z,138.60
2022-10-21T20:42:14.833Z,136.10
2022-10-21T20:47:16.997Z,140.97
2022-10-21T20:49:44.645Z,133.43
2022-10-21T20:52:12.325Z,142.47
2022-10-21T20:54:39.965Z,137.27
2022-10-21T20:57:07.655Z,133.07
2022-10-21T20:59:35.385Z,141.73
2022-10-21T21:02:04.632Z,131.17
2022-10-21T21:04:32.332Z,143.70
2022-10-21T21:06:59.992Z,141.97
2022-10-21T21:09:50.215Z,142.37
2022-10-21T21:12:15.916Z,128.17
2022-10-21T21:14:43.549Z,130.33
2022-10-21T21:17:12.514Z,137.43
2022-10-21T21:19:40.413Z,142.63
2022-10-21T21:22:08.090Z,139.47
2022-10-21T21:24:35.719Z,139.47
2022-10-21T21:27:03.332Z,142.17
2022-10-21T21:29:30.973Z,136.47
2022-10-21T21:31:58.701Z,137.97
2022-10-21T21:34:27.693Z,141.70
2022-10-21T21:36:55.352Z,135.97
2022-10-21T21:39:22.970Z,119.63
2022-10-21T21:41:50.822Z,141.07
2022-10-21T21:44:18.461Z,137.73
2022-10-21T21:46:46.078Z,136.03
2022-10-21T21:49:14.368Z,142.67
2022-10-21T21:51:43.341Z,138.40
2022-10-21T21:54:10.993Z,138.33
2022-10-21T21:56:38.641Z,137.27
2022-10-21T21:59:06.333Z,136.07
2022-10-21T22:01:34.128Z,135.27
2022-10-21T22:04:02.101Z,135.47
2022-10-21T22:06:31.713Z,138.00
2022-10-21T22:09:01.380Z,135.13
2022-10-21T22:11:31.109Z,136.77
2022-10-21T22:13:59.331Z,138.40
2022-10-21T22:16:30.024Z,137.13
2022-10-21T22:18:59.861Z,139.70
2022-10-21T22:21:27.807Z,131.67
2022-10-21T22:23:55.422Z,139.97
2022-10-21T22:26:26.609Z,126.50
2022-10-21T22:28:54.624Z,136.70
2022-10-21T22:31:27.414Z,132.00
2022-10-21T22:33:58.914Z,112.00
2022-10-21T22:36:27.146Z,119.53
2022-10-21T22:38:54.800Z,125.77
2022-10-21T22:41:23.820Z,124.03
2022-10-21T22:43:51.455Z,126.30
2022-10-21T22:46:33.429Z,119.00
2022-10-21T22:49:02.062Z,132.33
2022-10-21T22:51:29.701Z,135.97
2022-10-21T22:53:57.381Z,135.43
2022-10-21T22:56:26.708Z,132.57
2022-10-21T22:58:54.457Z,140.23
2022-10-21T23:01:23.972Z,133.37
2022-10-21T23:03:52.526Z,138.70
2022-10-21T23:06:20.160Z,139.63
2022-10-21T23:08:47.829Z,145.70
2022-10-21T23:11:15.922Z,134.03
2022-10-21T23:13:56.252Z,128.13
2022-10-21T23:16:31.538Z,133.70
2022-10-21T23:18:59.371Z,136.33
2022-10-21T23:21:27.077Z,127.37
2022-10-21T23:23:54.719Z,128.37
2022-10-21T23:26:22.406Z,137.03
2022-10-21T23:28:51.482Z,142.17
2022-10-21T23:31:19.711Z,134.93
2022-10-21T23:33:47.381Z,135.23
2022-10-21T23:36:15.393Z,133.37
2022-10-21T23:38:43.061Z,143.23
2022-10-21T23:41:10.713Z,133.17
2022-10-21T23:43:38.371Z,140.07
2022-10-21T23:46:07.733Z,128.40
2022-10-21T23:48:35.419Z,142.27
2022-10-21T23:51:04.213Z,138.07
2022-10-21T23:53:31.901Z,138.03
2022-10-21T23:55:59.521Z,143.93
2022-10-21T23:58:27.145Z,142.03
